Hyundai Shanghai — 5BZM3 — position and weather

sailwx.info

Track history (hours):
 
Tides and Currents Weather Stations Pressure Air Temp Water Temp Dewpoint Dewpoint Depression Visibility Wind Speed Wind Dir Waves Ship Positions

Hyundai Shanghai

Last reported at 2018-Jan-23 05:00 UTC. Time now 2018-Jan-23 06:20 UTC.
Position N 23°43' E 119°56'.

Length 304 m; draft 12.3 m.

Type: Ship (hazmat cat A). MMSI: 212353000.

Date/timePositionNaut miles runAvg speedWind from/ knotsBaromVisibWave heightAir tempDewpointWater temp
2018-Jan-23 05:00N 23°43' E 119°56'1020.1
2018-Jan-23 04:31N 23°33' E 119°55'1020.3
2018-Jan-23 04:00N 23°23' E 119°55'1920.2
2018-Jan-23 03:05N 23°04' E 119°55'220.1
2018-Jan-23 02:59N 23°03' E 119°56'1020.2
2018-Jan-23 02:30N 22°54' E 120°01'1019.8
2018-Jan-23 02:00N 22°45' E 120°06'1019.1
2018-Jan-23 01:30N 22°37' E 120°11'713.7
2018-Jan-23 01:00N 22°33' E 120°17'2 4.1
2018-Jan-23 00:31N 22°33' E 120°20'0 0.2
2018-Jan-22 23:59N 22°33' E 120°20'0 0.0
2018-Jan-22 23:29N 22°33' E 120°20'0 0.0
2018-Jan-22 22:59N 22°33' E 120°20'0 0.0
2018-Jan-22 22:29N 22°33' E 120°20'0 0.0
2018-Jan-22 21:59N 22°33' E 120°20'0 0.0
2018-Jan-22 21:26N 22°33' E 120°20'0 0.0
2018-Jan-22 20:59N 22°33' E 120°20'0 0.0
2018-Jan-22 20:29N 22°33' E 120°20'0 0.0
2018-Jan-22 19:59N 22°33' E 120°20'0 0.0
2018-Jan-22 19:29N 22°33' E 120°20'0 0.0
2018-Jan-22 18:59N 22°33' E 120°20'0 0.0
2018-Jan-22 18:29N 22°33' E 120°20'0 0.0
2018-Jan-22 17:59N 22°33' E 120°20'0 0.0
2018-Jan-22 17:29N 22°33' E 120°20'0 0.0
2018-Jan-22 16:59N 22°33' E 120°20'0 0.0
2018-Jan-22 16:29N 22°33' E 120°20'0 0.0
2018-Jan-22 15:59N 22°33' E 120°20'0 0.0
2018-Jan-22 15:29N 22°33' E 120°20'0 0.0
2018-Jan-22 14:59N 22°33' E 120°20'0 0.0
2018-Jan-22 14:29N 22°33' E 120°20'0 0.0
2018-Jan-22 13:59N 22°33' E 120°20'0 1.0
2018-Jan-22 13:30N 22°33' E 120°19'5 9.2
2018-Jan-22 13:00N 22°32' E 120°14'713.9
2018-Jan-22 12:30N 22°31' E 120°07'1019.7
2018-Jan-22 12:00N 22°29' E 119°56'1121.5
2018-Jan-22 11:30N 22°26' E 119°45'313 7.1
2018-Jan-20 15:45N 22°20' E 114°07'1 1.8
2018-Jan-20 15:27N 22°20' E 114°08'0 0.6
2018-Jan-20 14:55N 22°20' E 114°08'0 0.0
2018-Jan-20 12:13N 22°20' E 114°08'0 0.0
2018-Jan-20 11:55N 22°20' E 114°08'0 0.0
2018-Jan-20 08:25N 22°20' E 114°08'0 0.0
2018-Jan-20 07:55N 22°20' E 114°08'0 0.0
2018-Jan-19 21:55N 22°20' E 114°08'0 0.0
2018-Jan-19 21:10N 22°20' E 114°08'0 0.1
2018-Jan-19 20:58N 22°20' E 114°08'  
Track history (hours):
 
Tides and Currents Weather Stations Pressure Air Temp Water Temp Dewpoint Dewpoint Depression Visibility Wind Speed Wind Dir Waves Ship Positions

Hyundai Shanghai

Last reported at 2018-Jan-23 05:00 UTC. Time now 2018-Jan-23 06:20 UTC.
Position N 23°43' E 119°56'.

Length 304 m; draft 12.3 m.

Type: Ship (hazmat cat A). MMSI: 212353000.

Date/timePositionNaut miles runAvg speedWind from/ knotsBaromVisibWave heightAir tempDewpointWater temp
2018-Jan-23 05:00N 23°43' E 119°56'1020.1
2018-Jan-23 04:31N 23°33' E 119°55'1020.3
2018-Jan-23 04:00N 23°23' E 119°55'1920.2
2018-Jan-23 03:05N 23°04' E 119°55'220.1
2018-Jan-23 02:59N 23°03' E 119°56'1020.2
2018-Jan-23 02:30N 22°54' E 120°01'1019.8
2018-Jan-23 02:00N 22°45' E 120°06'1019.1
2018-Jan-23 01:30N 22°37' E 120°11'713.7
2018-Jan-23 01:00N 22°33' E 120°17'2 4.1
2018-Jan-23 00:31N 22°33' E 120°20'0 0.2
2018-Jan-22 23:59N 22°33' E 120°20'0 0.0
2018-Jan-22 23:29N 22°33' E 120°20'0 0.0
2018-Jan-22 22:59N 22°33' E 120°20'0 0.0
2018-Jan-22 22:29N 22°33' E 120°20'0 0.0
2018-Jan-22 21:59N 22°33' E 120°20'0 0.0
2018-Jan-22 21:26N 22°33' E 120°20'0 0.0
2018-Jan-22 20:59N 22°33' E 120°20'0 0.0
2018-Jan-22 20:29N 22°33' E 120°20'0 0.0
2018-Jan-22 19:59N 22°33' E 120°20'0 0.0
2018-Jan-22 19:29N 22°33' E 120°20'0 0.0
2018-Jan-22 18:59N 22°33' E 120°20'0 0.0
2018-Jan-22 18:29N 22°33' E 120°20'0 0.0
2018-Jan-22 17:59N 22°33' E 120°20'0 0.0
2018-Jan-22 17:29N 22°33' E 120°20'0 0.0
2018-Jan-22 16:59N 22°33' E 120°20'0 0.0
2018-Jan-22 16:29N 22°33' E 120°20'0 0.0
2018-Jan-22 15:59N 22°33' E 120°20'0 0.0
2018-Jan-22 15:29N 22°33' E 120°20'0 0.0
2018-Jan-22 14:59N 22°33' E 120°20'0 0.0
2018-Jan-22 14:29N 22°33' E 120°20'0 0.0
2018-Jan-22 13:59N 22°33' E 120°20'0 1.0
2018-Jan-22 13:30N 22°33' E 120°19'5 9.2
2018-Jan-22 13:00N 22°32' E 120°14'713.9
2018-Jan-22 12:30N 22°31' E 120°07'1019.7
2018-Jan-22 12:00N 22°29' E 119°56'1121.5
2018-Jan-22 11:30N 22°26' E 119°45'313 7.1
2018-Jan-20 15:45N 22°20' E 114°07'1 1.8
2018-Jan-20 15:27N 22°20' E 114°08'0 0.6
2018-Jan-20 14:55N 22°20' E 114°08'0 0.0
2018-Jan-20 12:13N 22°20' E 114°08'0 0.0
2018-Jan-20 11:55N 22°20' E 114°08'0 0.0
2018-Jan-20 08:25N 22°20' E 114°08'0 0.0
2018-Jan-20 07:55N 22°20' E 114°08'0 0.0
2018-Jan-19 21:55N 22°20' E 114°08'0 0.0
2018-Jan-19 21:10N 22°20' E 114°08'0 0.1
2018-Jan-19 20:58N 22°20' E 114°08'  

Dump ship's entire track history